Time;durP1;ratioP1;P1;durP2;ratioP2;P2;SDS_P1;SDS_P2;PMS_P1;PMS_P2;Temp;Humidity;BMP_temperature;BMP_pressure;BME280_temperature;BME280_humidity;BME280_pressure;Samples;Min_cycle;Max_cycle;Signal;HPM_P1;HPM_P2
2022/08/26 00:00:33;;;;;;;9.02;2.40;;;20.40;82.70;;;;;;5002815;28;20032;-72
2022/08/26 00:02:59;;;;;;;8.00;3.00;;;20.40;82.80;;;;;;4995803;28;20034;-72
2022/08/26 00:05:25;;;;;;;9.02;2.75;;;20.40;82.90;;;;;;5004780;28;20036;-72
2022/08/26 00:07:52;;;;;;;8.23;2.67;;;20.40;82.80;;;;;;5002812;28;20053;-72
2022/08/26 00:10:18;;;;;;;9.07;2.78;;;20.40;82.60;;;;;;5034929;28;20096;-73
2022/08/26 00:12:44;;;;;;;10.05;2.67;;;20.40;82.50;;;;;;5001016;28;20506;-73
2022/08/26 00:15:13;;;;;;;8.63;2.28;;;20.40;82.50;;;;;;4994620;28;20089;-72
2022/08/26 00:17:39;;;;;;;9.45;2.63;;;20.40;82.40;;;;;;4995405;28;20113;-72
2022/08/26 00:20:06;;;;;;;11.15;2.70;;;20.40;82.40;;;;;;4994241;28;20121;-74
2022/08/26 00:22:32;;;;;;;7.03;2.20;;;20.40;82.40;;;;;;4994189;28;20031;-74
2022/08/26 00:24:58;;;;;;;7.65;2.78;;;20.30;82.40;;;;;;4997513;28;20044;-72
2022/08/26 00:27:23;;;;;;;9.85;2.40;;;20.40;82.10;;;;;;4991142;28;20383;-72
2022/08/26 00:29:49;;;;;;;7.70;2.08;;;20.30;82.30;;;;;;5001221;28;20430;-72
2022/08/26 00:32:15;;;;;;;7.57;2.20;;;20.40;82.20;;;;;;4996852;28;20030;-72
2022/08/26 00:34:40;;;;;;;6.82;2.00;;;20.40;82.10;;;;;;5000778;28;20066;-72
2022/08/26 00:37:06;;;;;;;7.82;2.33;;;20.30;82.20;;;;;;4994070;28;20465;-72
2022/08/26 00:39:32;;;;;;;10.02;2.40;;;20.30;82.20;;;;;;4995922;28;20563;-73
2022/08/26 00:41:59;;;;;;;7.80;2.15;;;20.40;82.20;;;;;;4998174;28;20103;-72
2022/08/26 00:44:25;;;;;;;9.90;2.22;;;20.30;82.30;;;;;;5004946;28;20555;-72
2022/08/26 00:46:57;;;;;;;9.23;2.60;;;20.30;82.40;;;;;;4996428;28;20066;-72
2022/08/26 00:49:46;;;;;;;8.48;2.65;;;20.30;82.30;;;;;;5020585;28;20054;-72
2022/08/26 00:52:16;;;;;;;9.20;2.45;;;20.30;82.40;;;;;;4991270;28;20038;-73
2022/08/26 00:55:13;;;;;;;9.30;2.33;;;20.30;82.40;;;;;;4993127;28;20026;-72
2022/08/26 00:57:39;;;;;;;7.63;1.90;;;20.30;82.40;;;;;;4997965;28;20068;-73
2022/08/26 01:00:13;;;;;;;7.72;2.30;;;20.20;82.30;;;;;;4992008;28;20100;-73
2022/08/26 01:02:39;;;;;;;7.65;2.80;;;20.20;82.40;;;;;;4986397;28;20482;-73
2022/08/26 01:05:07;;;;;;;7.75;2.30;;;20.30;82.30;;;;;;4994805;28;20034;-73
2022/08/26 01:07:34;;;;;;;9.00;2.58;;;20.20;81.90;;;;;;4999466;28;20493;-73
2022/08/26 01:10:02;;;;;;;8.50;2.45;;;20.20;81.70;;;;;;4999330;28;20054;-72
2022/08/26 01:12:32;;;;;;;8.45;2.38;;;20.20;81.40;;;;;;4993122;28;20054;-73
2022/08/26 01:14:59;;;;;;;8.40;2.28;;;20.20;81.00;;;;;;4990802;28;20112;-72
2022/08/26 01:17:24;;;;;;;8.25;2.97;;;20.20;80.80;;;;;;4996212;28;20587;-72
2022/08/26 01:19:58;;;;;;;8.15;2.35;;;20.20;80.90;;;;;;4999621;28;20069;-72
2022/08/26 01:22:37;;;;;;;7.10;2.35;;;20.20;81.00;;;;;;5024074;28;20045;-72
2022/08/26 01:25:04;;;;;;;6.22;2.13;;;20.10;81.20;;;;;;4997056;28;20062;-73
2022/08/26 01:27:31;;;;;;;6.15;1.90;;;20.20;81.20;;;;;;4995771;28;20045;-72
2022/08/26 01:29:59;;;;;;;6.55;2.20;;;20.10;81.40;;;;;;4998565;28;20407;-72
2022/08/26 01:32:27;;;;;;;6.97;1.90;;;20.20;81.40;;;;;;5002699;28;20486;-72
2022/08/26 01:34:53;;;;;;;6.78;1.92;;;20.30;81.40;;;;;;4998495;28;20049;-73
2022/08/26 01:37:26;;;;;;;10.60;2.78;;;20.30;81.40;;;;;;4995504;28;20113;-72
2022/08/26 01:39:54;;;;;;;6.47;2.17;;;20.10;81.50;;;;;;5033272;28;20122;-72
2022/08/26 01:42:22;;;;;;;9.30;2.35;;;20.10;81.60;;;;;;5000222;28;20030;-72
2022/08/26 01:44:56;;;;;;;6.13;2.20;;;20.10;81.40;;;;;;5023104;28;20041;-72
2022/08/26 01:47:27;;;;;;;8.02;2.03;;;20.10;80.90;;;;;;4988937;28;20041;-73
2022/08/26 01:49:55;;;;;;;6.95;2.28;;;20.10;80.80;;;;;;5000743;28;20556;-72
2022/08/26 01:52:24;;;;;;;5.68;2.47;;;20.10;80.80;;;;;;4993399;28;20038;-72
2022/08/26 01:54:51;;;;;;;6.18;1.77;;;20.10;80.60;;;;;;4989193;28;20657;-71
2022/08/26 01:57:19;;;;;;;5.43;1.55;;;20.10;80.30;;;;;;5030052;28;20042;-72
2022/08/26 01:59:45;;;;;;;9.35;2.13;;;20.10;79.90;;;;;;4988930;28;20046;-71
2022/08/26 02:02:12;;;;;;;5.40;1.75;;;20.10;79.90;;;;;;4995981;28;20031;-72
2022/08/26 02:04:48;;;;;;;5.90;1.83;;;20.10;79.90;;;;;;5017787;28;20084;-72
2022/08/26 02:07:17;;;;;;;9.32;2.17;;;20.00;80.10;;;;;;5003043;28;20058;-72
2022/08/26 02:09:43;;;;;;;6.38;1.75;;;20.00;80.30;;;;;;4997361;28;20057;-71
2022/08/26 02:12:10;;;;;;;8.25;2.00;;;20.00;80.20;;;;;;4993415;28;20050;-72
2022/08/26 02:14:40;;;;;;;9.10;1.70;;;20.00;80.10;;;;;;4994878;28;20026;-72
2022/08/26 02:17:07;;;;;;;5.40;1.73;;;20.00;80.30;;;;;;4999271;28;20038;-72
2022/08/26 02:19:35;;;;;;;8.73;2.20;;;19.90;80.10;;;;;;4990143;28;20488;-72
2022/08/26 02:22:06;;;;;;;6.63;2.00;;;20.00;80.20;;;;;;4988870;28;20054;-73
2022/08/26 02:24:57;;;;;;;6.63;2.33;;;20.00;80.30;;;;;;4996646;28;20490;-73
2022/08/26 02:27:27;;;;;;;9.10;2.22;;;20.10;80.00;;;;;;4993925;28;20034;-72
2022/08/26 02:29:59;;;;;;;6.43;2.20;;;20.10;79.90;;;;;;4998771;28;20051;-73
2022/08/26 02:32:24;;;;;;;9.15;2.20;;;20.10;80.10;;;;;;4991393;28;20041;-72
2022/08/26 02:34:50;;;;;;;6.97;1.92;;;20.10;80.10;;;;;;4997877;28;20620;-72
2022/08/26 02:37:16;;;;;;;9.77;2.65;;;20.10;80.10;;;;;;4998063;28;20057;-72
2022/08/26 02:39:42;;;;;;;8.85;2.55;;;20.10;80.20;;;;;;4996559;28;20057;-72
2022/08/26 02:42:08;;;;;;;6.95;1.92;;;20.00;80.20;;;;;;5000431;28;20342;-72
2022/08/26 02:44:35;;;;;;;7.10;2.25;;;20.00;80.20;;;;;;4992871;28;20030;-73
2022/08/26 02:47:00;;;;;;;7.13;1.98;;;20.10;80.20;;;;;;4996335;28;20066;-72
2022/08/26 02:49:29;;;;;;;7.20;2.28;;;20.00;80.20;;;;;;4992741;28;20065;-73
2022/08/26 02:51:55;;;;;;;6.78;1.98;;;20.10;80.10;;;;;;5002204;28;20126;-72
2022/08/26 02:54:20;;;;;;;5.63;1.73;;;20.00;80.40;;;;;;4989904;28;23303;-72
2022/08/26 02:56:47;;;;;;;8.25;2.20;;;20.00;80.60;;;;;;4989314;28;20046;-72
2022/08/26 02:59:14;;;;;;;4.95;1.90;;;20.10;80.50;;;;;;4991356;28;20062;-72
2022/08/26 03:01:41;;;;;;;8.85;1.98;;;20.00;80.60;;;;;;4990463;28;20478;-72
2022/08/26 03:04:10;;;;;;;9.68;1.98;;;20.00;80.60;;;;;;4992008;28;20037;-72
2022/08/26 03:06:36;;;;;;;7.00;2.13;;;20.00;80.60;;;;;;4993461;28;20401;-71
2022/08/26 03:09:03;;;;;;;5.55;1.70;;;20.00;80.40;;;;;;5004458;28;20034;-72
2022/08/26 03:11:30;;;;;;;6.75;2.42;;;20.00;80.50;;;;;;4998846;28;20042;-72
2022/08/26 03:13:56;;;;;;;8.57;1.85;;;20.00;80.30;;;;;;4990218;28;20034;-74
2022/08/26 03:16:22;;;;;;;6.72;1.77;;;19.90;80.60;;;;;;5001316;28;20393;-73
2022/08/26 03:18:47;;;;;;;7.82;2.10;;;19.90;80.70;;;;;;4992424;28;20042;-72
2022/08/26 03:21:17;;;;;;;8.20;2.60;;;19.80;80.80;;;;;;4987879;28;20062;-73
2022/08/26 03:23:43;;;;;;;9.18;2.42;;;19.80;81.00;;;;;;4992704;28;20053;-72
2022/08/26 03:26:11;;;;;;;4.88;1.60;;;19.80;81.00;;;;;;4995453;28;20034;-72
2022/08/26 03:30:38;;;;;;;5.88;1.80;;;19.80;80.80;;;;;;4998201;28;20155;-74
2022/08/26 03:31:27;;;;;;;4.93;2.03;;;19.80;80.90;;;;;;4995958;28;20458;-72
2022/08/26 03:33:53;;;;;;;6.50;1.70;;;19.80;80.80;;;;;;4999778;28;20402;-72
2022/08/26 03:36:19;;;;;;;6.55;2.05;;;19.70;81.00;;;;;;4994226;28;20036;-72
2022/08/26 03:38:44;;;;;;;7.45;1.75;;;19.80;81.00;;;;;;5006166;28;20030;-72
2022/08/26 03:41:11;;;;;;;8.30;1.98;;;19.70;81.00;;;;;;5000062;28;20049;-71
2022/08/26 03:43:37;;;;;;;7.70;1.88;;;19.70;81.00;;;;;;4996195;28;20483;-72
2022/08/26 03:46:10;;;;;;;9.10;2.10;;;19.70;81.20;;;;;;4995836;28;20490;-73
2022/08/26 03:48:37;;;;;;;5.97;2.00;;;19.70;81.10;;;;;;4998527;28;20414;-72
2022/08/26 03:51:04;;;;;;;9.70;2.30;;;19.70;81.30;;;;;;4991429;28;20402;-72
2022/08/26 03:53:30;;;;;;;8.95;2.22;;;19.70;81.30;;;;;;4999143;28;20383;-73
2022/08/26 03:55:56;;;;;;;6.65;2.00;;;19.70;81.20;;;;;;4994722;28;20034;-72
2022/08/26 03:58:23;;;;;;;8.88;2.85;;;19.70;81.20;;;;;;4998662;28;20438;-73
2022/08/26 04:00:50;;;;;;;6.18;2.22;;;19.70;81.00;;;;;;5001201;28;20046;-72
2022/08/26 04:03:56;;;;;;;9.10;2.38;;;19.80;80.80;;;;;;4998545;28;20445;-72
2022/08/26 04:06:02;;;;;;;7.45;2.00;;;19.70;80.80;;;;;;5004922;28;20053;-73
2022/08/26 04:08:28;;;;;;;9.52;2.47;;;19.70;80.90;;;;;;4997581;28;20072;-72
2022/08/26 04:10:53;;;;;;;7.55;2.20;;;19.70;81.10;;;;;;4989724;28;20050;-73
2022/08/26 04:13:19;;;;;;;6.00;1.98;;;19.70;81.20;;;;;;4987778;28;20042;-73
2022/08/26 04:15:45;;;;;;;4.85;2.08;;;19.60;81.30;;;;;;4990523;28;20066;-72
2022/08/26 04:18:11;;;;;;;8.75;2.50;;;19.60;81.30;;;;;;4996269;28;20034;-74
2022/08/26 04:20:36;;;;;;;7.90;2.28;;;19.60;81.30;;;;;;4995926;28;20042;-72
2022/08/26 04:23:03;;;;;;;8.07;2.25;;;19.60;81.30;;;;;;5029003;28;20038;-72
2022/08/26 04:25:28;;;;;;;8.45;2.67;;;19.60;81.30;;;;;;4999618;28;20038;-72
2022/08/26 04:27:54;;;;;;;5.95;2.10;;;19.60;81.30;;;;;;4993435;28;20064;-73
2022/08/26 04:30:20;;;;;;;5.93;2.30;;;19.60;81.20;;;;;;5001774;28;20052;-73
2022/08/26 04:32:47;;;;;;;8.23;2.22;;;19.60;81.20;;;;;;5000318;28;20053;-73
2022/08/26 04:35:13;;;;;;;5.90;2.10;;;19.60;81.30;;;;;;4998657;28;20063;-74
2022/08/26 04:37:38;;;;;;;6.45;2.20;;;19.60;81.30;;;;;;4996912;28;20041;-72
2022/08/26 04:40:05;;;;;;;5.88;2.25;;;19.60;81.30;;;;;;4993048;28;20097;-72
2022/08/26 04:42:32;;;;;;;12.23;2.75;;;19.70;81.10;;;;;;5006700;28;20061;-72
2022/08/26 04:44:57;;;;;;;5.53;2.00;;;19.70;81.10;;;;;;4998971;28;20402;-72
2022/08/26 04:47:23;;;;;;;8.45;2.20;;;19.70;81.10;;;;;;4991934;28;20034;-72
2022/08/26 04:49:53;;;;;;;5.80;2.47;;;19.60;81.00;;;;;;4996261;28;20053;-72
2022/08/26 04:52:18;;;;;;;3.95;1.88;;;19.70;81.00;;;;;;5001907;28;20030;-72
2022/08/26 04:54:44;;;;;;;8.13;2.17;;;19.70;81.00;;;;;;4998000;28;20037;-72
2022/08/26 04:57:10;;;;;;;8.68;2.30;;;19.70;80.90;;;;;;4994643;28;20450;-72
2022/08/26 04:59:36;;;;;;;9.23;2.58;;;19.70;80.90;;;;;;5004047;28;20042;-72
2022/08/26 05:02:02;;;;;;;5.63;2.00;;;19.70;80.80;;;;;;4997031;28;20457;-73
2022/08/26 05:04:29;;;;;;;9.25;2.15;;;19.70;81.00;;;;;;5001157;28;20034;-72
2022/08/26 05:06:55;;;;;;;5.40;1.98;;;19.70;81.10;;;;;;4995259;28;20062;-72
2022/08/26 05:09:21;;;;;;;6.60;1.75;;;19.70;80.90;;;;;;4992414;28;20050;-72
2022/08/26 05:11:47;;;;;;;4.63;2.00;;;19.70;80.90;;;;;;4994658;28;20140;-72
2022/08/26 05:14:14;;;;;;;7.90;2.40;;;19.70;81.00;;;;;;4990600;28;20041;-72
2022/08/26 05:16:39;;;;;;;5.80;2.20;;;19.70;80.80;;;;;;4995971;28;20067;-72
2022/08/26 05:19:06;;;;;;;5.45;2.08;;;19.80;80.80;;;;;;4994206;28;20038;-73
2022/08/26 05:21:32;;;;;;;8.60;2.38;;;19.80;80.90;;;;;;4999263;28;20034;-72
2022/08/26 05:23:59;;;;;;;7.47;2.30;;;19.80;80.60;;;;;;4995907;28;20037;-72
2022/08/26 05:26:28;;;;;;;5.22;2.03;;;19.80;80.70;;;;;;4993687;28;20046;-72
2022/08/26 05:28:54;;;;;;;6.75;2.97;;;19.90;80.60;;;;;;5000089;28;20044;-72
2022/08/26 05:31:23;;;;;;;7.22;2.55;;;19.80;80.70;;;;;;4998694;28;20478;-72
2022/08/26 05:33:48;;;;;;;7.18;2.47;;;19.90;80.70;;;;;;4995982;28;20035;-72
2022/08/26 05:36:17;;;;;;;6.35;2.42;;;19.90;80.70;;;;;;4997477;28;20053;-72
2022/08/26 05:38:43;;;;;;;8.02;2.75;;;19.90;80.60;;;;;;4998410;28;20034;-72
2022/08/26 05:41:18;;;;;;;4.53;1.83;;;19.90;80.50;;;;;;4992368;28;20053;-74
2022/08/26 05:43:44;;;;;;;7.53;2.35;;;20.00;80.50;;;;;;5000612;28;20030;-73
2022/08/26 05:46:10;;;;;;;6.55;1.98;;;20.00;80.30;;;;;;4990363;28;20042;-75
2022/08/26 05:48:36;;;;;;;7.93;2.30;;;20.00;80.10;;;;;;4994877;28;20055;-72
2022/08/26 05:51:07;;;;;;;7.65;2.45;;;20.00;80.10;;;;;;4990857;28;20305;-72
2022/08/26 05:53:34;;;;;;;5.50;2.20;;;20.10;80.10;;;;;;4994663;28;20124;-72
2022/08/26 05:56:01;;;;;;;8.52;2.53;;;20.10;79.80;;;;;;4992163;28;20038;-72
2022/08/26 05:58:27;;;;;;;5.78;2.22;;;20.10;79.90;;;;;;5003167;28;20489;-73
2022/08/26 06:01:13;;;;;;;6.60;2.25;;;20.10;80.00;;;;;;4990932;28;20042;-74
2022/08/26 06:03:43;;;;;;;5.93;1.98;;;20.20;79.70;;;;;;5025519;28;20606;-72
2022/08/26 06:06:31;;;;;;;7.78;2.00;;;20.20;79.30;;;;;;4999377;28;20034;-73
2022/08/26 06:08:58;;;;;;;9.57;1.98;;;20.30;78.90;;;;;;4991126;28;20038;-74
2022/08/26 06:11:24;;;;;;;8.32;1.90;;;20.20;79.00;;;;;;4998992;28;20598;-72
2022/08/26 06:13:54;;;;;;;6.00;1.90;;;20.30;78.90;;;;;;4989524;28;20399;-72
2022/08/26 06:16:22;;;;;;;4.50;1.73;;;20.30;79.00;;;;;;5001688;28;20100;-72
2022/08/26 06:18:49;;;;;;;6.07;1.90;;;20.30;78.70;;;;;;5001047;28;20038;-72
2022/08/26 06:21:27;;;;;;;5.45;1.73;;;20.30;78.70;;;;;;4996686;28;20032;-72
2022/08/26 06:26:41;;;;;;;5.75;1.70;;;20.40;78.40;;;;;;5009098;28;20053;-72
2022/08/26 06:29:07;;;;;;;7.07;1.90;;;20.50;78.40;;;;;;4995201;28;20125;-73
2022/08/26 06:31:35;;;;;;;7.72;2.00;;;20.50;78.00;;;;;;4997441;28;20200;-72
2022/08/26 06:34:02;;;;;;;3.58;1.45;;;20.60;77.80;;;;;;4992812;28;20107;-72
2022/08/26 06:36:29;;;;;;;6.43;1.85;;;20.50;77.80;;;;;;4992806;28;20421;-72
2022/08/26 06:38:59;;;;;;;3.67;1.48;;;20.60;77.70;;;;;;4994028;28;20482;-76
2022/08/26 06:41:26;;;;;;;6.93;1.40;;;20.80;77.50;;;;;;4988268;28;20034;-73
2022/08/26 06:43:51;;;;;;;5.63;1.23;;;20.90;77.10;;;;;;4995965;28;20057;-72
2022/08/26 06:46:20;;;;;;;5.35;1.25;;;20.90;76.80;;;;;;4992058;28;20035;-72
2022/08/26 06:48:46;;;;;;;5.50;1.27;;;21.00;76.70;;;;;;4994766;28;20042;-73
2022/08/26 06:51:20;;;;;;;5.72;1.30;;;20.90;76.60;;;;;;4997033;28;20038;-72
2022/08/26 06:53:48;;;;;;;3.42;1.30;;;20.90;76.80;;;;;;5003983;28;20420;-72
2022/08/26 06:56:16;;;;;;;5.25;1.33;;;21.10;76.70;;;;;;5005596;28;20121;-72
2022/08/26 06:58:42;;;;;;;4.45;1.27;;;21.10;76.10;;;;;;4991589;28;20034;-72
2022/08/26 07:01:33;;;;;;;5.97;1.30;;;21.10;76.30;;;;;;4997246;28;20088;-72
2022/08/26 07:04:02;;;;;;;6.50;1.65;;;21.10;76.40;;;;;;4986437;28;20087;-72
2022/08/26 07:06:28;;;;;;;5.82;1.52;;;21.10;75.70;;;;;;4997673;28;20117;-75
2022/08/26 07:09:01;;;;;;;5.78;1.17;;;21.10;75.90;;;;;;5001676;28;20088;-74
2022/08/26 07:11:27;;;;;;;3.88;1.23;;;21.00;76.00;;;;;;5003379;28;20053;-73
2022/08/26 07:13:53;;;;;;;7.90;1.50;;;21.00;75.90;;;;;;5001694;28;20112;-72
2022/08/26 07:16:19;;;;;;;6.47;1.30;;;21.10;75.70;;;;;;4993574;28;20034;-72
2022/08/26 07:18:45;;;;;;;6.93;1.35;;;21.10;75.70;;;;;;4990375;28;20447;-72
2022/08/26 07:21:15;;;;;;;6.90;1.60;;;21.20;75.10;;;;;;4991066;28;20027;-73
2022/08/26 07:23:41;;;;;;;6.40;1.33;;;21.20;75.40;;;;;;4988956;28;20046;-72
2022/08/26 07:26:08;;;;;;;5.38;1.40;;;21.30;75.30;;;;;;4988218;28;20475;-72
2022/08/26 07:28:34;;;;;;;4.75;1.40;;;21.40;74.80;;;;;;4992418;28;20117;-72
2022/08/26 07:31:08;;;;;;;7.35;1.83;;;21.30;74.10;;;;;;4992663;28;20128;-72
2022/08/26 07:33:35;;;;;;;8.70;1.55;;;21.30;74.70;;;;;;5000590;28;20076;-73
2022/08/26 07:36:02;;;;;;;4.30;1.70;;;21.20;74.70;;;;;;4999685;28;20049;-75
2022/08/26 07:38:28;;;;;;;5.15;1.40;;;21.20;74.70;;;;;;5011266;28;20489;-72
2022/08/26 07:40:53;;;;;;;7.20;1.40;;;21.30;74.40;;;;;;5010030;28;20073;-73
2022/08/26 07:43:19;;;;;;;5.30;1.63;;;21.40;74.50;;;;;;5008460;28;20034;-73
2022/08/26 07:45:45;;;;;;;4.60;1.30;;;21.30;73.90;;;;;;5013274;28;20044;-73
2022/08/26 07:48:11;;;;;;;4.75;1.30;;;21.50;74.10;;;;;;5013283;28;20116;-72
2022/08/26 07:50:38;;;;;;;3.78;1.05;;;21.60;73.70;;;;;;5013122;28;20445;-72
2022/08/26 07:53:04;;;;;;;5.75;1.30;;;21.60;72.40;;;;;;5012520;28;20037;-73
2022/08/26 07:55:31;;;;;;;4.10;1.10;;;21.80;72.70;;;;;;5020917;28;20025;-72
2022/08/26 07:57:57;;;;;;;2.45;1.00;;;21.90;72.00;;;;;;5020033;28;20036;-74
2022/08/26 08:00:23;;;;;;;4.50;1.30;;;22.10;72.00;;;;;;5047787;28;20038;-72
2022/08/26 08:02:50;;;;;;;5.55;1.15;;;22.00;70.70;;;;;;5023944;28;20025;-72
2022/08/26 08:05:18;;;;;;;4.45;1.15;;;22.10;71.20;;;;;;5018295;28;20044;-72
2022/08/26 08:07:44;;;;;;;4.85;1.55;;;22.00;71.50;;;;;;5018202;28;20390;-72
2022/08/26 08:10:13;;;;;;;7.07;1.40;;;22.10;71.10;;;;;;5009832;28;20038;-72
2022/08/26 08:12:40;;;;;;;5.22;1.33;;;22.10;70.90;;;;;;5012080;28;20050;-73
2022/08/26 08:15:07;;;;;;;5.55;1.13;;;22.10;71.20;;;;;;5013191;28;20448;-75
2022/08/26 08:17:33;;;;;;;4.68;1.40;;;22.10;70.20;;;;;;5014143;28;20038;-74
2022/08/26 08:20:00;;;;;;;7.50;1.20;;;22.10;70.30;;;;;;5024248;28;20034;-72
2022/08/26 08:22:26;;;;;;;6.38;1.17;;;22.10;70.40;;;;;;4988014;28;20533;-73
2022/08/26 08:24:52;;;;;;;3.22;0.93;;;22.10;69.70;;;;;;4999259;28;20125;-72
2022/08/26 08:27:18;;;;;;;4.03;1.20;;;22.10;68.90;;;;;;4995783;28;20034;-72
2022/08/26 08:29:44;;;;;;;3.10;0.90;;;22.10;68.70;;;;;;4994145;28;20073;-72
2022/08/26 08:32:10;;;;;;;6.28;0.98;;;22.20;68.50;;;;;;4989163;28;20047;-72
2022/08/26 08:34:36;;;;;;;3.10;1.10;;;22.20;68.30;;;;;;5001636;28;20022;-72
2022/08/26 08:37:04;;;;;;;2.95;0.88;;;22.50;67.90;;;;;;5001594;28;20056;-74
2022/08/26 08:39:30;;;;;;;4.45;0.90;;;22.60;66.90;;;;;;4998930;28;20037;-72
2022/08/26 08:42:10;;;;;;;3.83;1.13;;;22.60;67.00;;;;;;4994803;28;20050;-73
2022/08/26 08:44:40;;;;;;;4.00;1.10;;;22.70;66.70;;;;;;5005166;28;20492;-72
2022/08/26 08:47:32;;;;;;;3.40;0.98;;;22.80;66.50;;;;;;5030445;28;20048;-73
2022/08/26 08:50:12;;;;;;;3.55;1.00;;;22.70;67.00;;;;;;4995326;28;20039;-73
2022/08/26 08:52:40;;;;;;;3.58;0.80;;;22.80;66.90;;;;;;4994835;28;20029;-72
2022/08/26 08:55:07;;;;;;;5.95;1.05;;;22.80;65.60;;;;;;5002956;28;20056;-72
2022/08/26 08:57:53;;;;;;;2.55;0.80;;;22.60;65.90;;;;;;4994567;28;20034;-72
2022/08/26 09:00:21;;;;;;;5.88;1.13;;;22.80;65.20;;;;;;4992240;28;20034;-71
2022/08/26 09:02:52;;;;;;;2.42;0.80;;;22.80;65.50;;;;;;4998444;28;20101;-72
2022/08/26 09:05:31;;;;;;;3.65;0.93;;;22.80;65.20;;;;;;4989727;28;20108;-72
2022/08/26 09:08:03;;;;;;;2.67;0.80;;;22.90;65.30;;;;;;4992140;28;20062;-74
2022/08/26 09:10:37;;;;;;;2.08;0.90;;;23.00;65.80;;;;;;5000861;28;20052;-72
2022/08/26 09:13:08;;;;;;;5.60;1.00;;;23.20;65.00;;;;;;5001249;28;20039;-72
2022/08/26 09:15:49;;;;;;;2.78;1.00;;;23.30;65.40;;;;;;5000924;28;20040;-73
2022/08/26 09:18:53;;;;;;;5.15;1.15;;;23.40;65.60;;;;;;4993551;28;20034;-72
2022/08/26 09:21:22;;;;;;;3.45;1.00;;;23.70;63.90;;;;;;4995116;28;20128;-72
2022/08/26 09:23:49;;;;;;;5.65;1.20;;;24.30;63.20;;;;;;5000953;28;20029;-72
2022/08/26 09:26:42;;;;;;;4.80;1.20;;;24.70;62.20;;;;;;4995057;28;20046;-72
2022/08/26 09:29:22;;;;;;;5.72;1.23;;;24.90;60.70;;;;;;4998546;28;20168;-72
2022/08/26 09:31:48;;;;;;;3.97;1.10;;;24.60;61.10;;;;;;4993958;28;20189;-74
2022/08/26 09:34:25;;;;;;;4.85;1.17;;;24.60;61.70;;;;;;5002260;28;20039;-74
2022/08/26 09:36:53;;;;;;;3.47;1.10;;;24.60;61.60;;;;;;4992060;28;20053;-72
2022/08/26 09:39:36;;;;;;;2.90;1.10;;;24.70;61.60;;;;;;4989518;28;20069;-72
2022/08/26 09:42:24;;;;;;;3.55;1.30;;;24.60;61.50;;;;;;4993334;28;20445;-72
2022/08/26 09:44:58;;;;;;;4.40;1.02;;;24.30;61.90;;;;;;4992486;28;20034;-72
2022/08/26 09:47:46;;;;;;;4.22;1.10;;;23.60;64.50;;;;;;4997051;28;20038;-74
2022/08/26 09:50:52;;;;;;;6.35;1.15;;;23.40;64.40;;;;;;4993121;28;20512;-71
2022/08/26 09:53:21;;;;;;;5.13;1.10;;;23.30;64.60;;;;;;4971991;28;20351;-72
2022/08/26 09:56:09;;;;;;;5.25;1.30;;;23.20;64.80;;;;;;4954576;28;20083;-71
2022/08/26 09:58:38;;;;;;;5.55;1.40;;;23.00;65.80;;;;;;4990327;28;20132;-72
2022/08/26 10:01:06;;;;;;;6.32;1.55;;;23.20;65.70;;;;;;4992374;28;20056;-74
2022/08/26 10:03:38;;;;;;;7.15;1.77;;;23.60;64.80;;;;;;4994637;28;20030;-72
2022/08/26 10:06:18;;;;;;;4.57;1.63;;;24.10;63.90;;;;;;4994603;28;20659;-72
2022/08/26 10:08:53;;;;;;;6.15;1.00;;;24.20;62.20;;;;;;4994609;28;20073;-72
2022/08/26 10:11:38;;;;;;;3.83;1.08;;;24.30;61.70;;;;;;4994670;28;20128;-72
2022/08/26 10:14:12;;;;;;;5.40;0.90;;;24.20;62.00;;;;;;4994743;28;20125;-72
2022/08/26 10:16:45;;;;;;;4.03;1.60;;;24.30;61.80;;;;;;4992384;28;20030;-72
2022/08/26 10:19:17;;;;;;;6.25;1.63;;;24.40;61.40;;;;;;4993158;28;20053;-73
2022/08/26 10:21:58;;;;;;;4.53;1.33;;;24.60;60.10;;;;;;4991829;28;20057;-72
2022/08/26 10:24:31;;;;;;;5.05;1.20;;;25.00;59.70;;;;;;4995125;28;20054;-74
2022/08/26 10:27:15;;;;;;;4.15;1.13;;;25.70;59.10;;;;;;5000853;28;20096;-72
2022/08/26 10:29:47;;;;;;;4.25;1.00;;;26.30;55.70;;;;;;4998556;28;20161;-72
2022/08/26 10:32:25;;;;;;;3.83;1.20;;;25.90;56.50;;;;;;4988005;28;20042;-72
2022/08/26 10:34:51;;;;;;;6.25;1.33;;;25.10;57.20;;;;;;4998596;28;20095;-72
2022/08/26 10:37:22;;;;;;;4.82;1.35;;;24.60;59.30;;;;;;4993420;28;20486;-72
2022/08/26 10:39:51;;;;;;;4.70;1.20;;;24.20;61.00;;;;;;4998327;28;20046;-72
2022/08/26 10:42:40;;;;;;;6.95;1.80;;;24.10;61.80;;;;;;4999596;28;20065;-72
2022/08/26 10:45:13;;;;;;;4.32;1.10;;;24.20;61.40;;;;;;4997244;28;20039;-75
2022/08/26 10:47:47;;;;;;;4.22;1.20;;;24.10;61.90;;;;;;5022870;28;20122;-72
2022/08/26 10:50:13;;;;;;;7.22;1.30;;;24.10;62.00;;;;;;4987574;28;20112;-73
2022/08/26 10:53:03;;;;;;;6.80;1.10;;;24.00;61.40;;;;;;4993168;28;20497;-72
2022/08/26 10:55:35;;;;;;;5.50;1.20;;;23.90;61.80;;;;;;4998131;28;20048;-72
2022/08/26 10:58:32;;;;;;;4.25;1.30;;;23.80;61.90;;;;;;4998577;28;20030;-73
2022/08/26 11:04:15;;;;;;;4.80;1.17;;;24.20;61.60;;;;;;5004253;28;20067;-73
2022/08/26 11:06:44;;;;;;;5.05;1.50;;;24.90;58.20;;;;;;4994583;28;20108;-73
2022/08/26 11:09:31;;;;;;;4.85;1.30;;;25.40;57.10;;;;;;4995224;28;20038;-74
2022/08/26 11:11:57;;;;;;;6.82;1.45;;;25.70;57.30;;;;;;4993771;28;20163;-75
2022/08/26 11:14:22;;;;;;;4.63;1.23;;;26.20;55.70;;;;;;4986169;28;20050;-73
2022/08/26 11:16:55;;;;;;;3.50;1.17;;;26.20;54.90;;;;;;4989529;28;20080;-76
2022/08/26 11:19:37;;;;;;;5.55;1.10;;;26.00;55.30;;;;;;4991249;28;20045;-73
2022/08/26 11:22:04;;;;;;;5.35;1.45;;;25.70;55.10;;;;;;4987507;28;20070;-73
2022/08/26 11:24:40;;;;;;;3.40;1.10;;;25.40;57.10;;;;;;4994888;28;20474;-73
2022/08/26 11:27:30;;;;;;;4.78;1.30;;;25.30;57.30;;;;;;4997812;28;20031;-73
2022/08/26 11:30:00;;;;;;;5.47;1.20;;;25.10;57.40;;;;;;4991437;28;20398;-73
2022/08/26 11:32:45;;;;;;;6.40;1.42;;;25.20;57.00;;;;;;4995668;28;20534;-73
2022/08/26 11:35:12;;;;;;;4.55;1.17;;;25.10;56.80;;;;;;4995196;28;20026;-73
2022/08/26 11:37:47;;;;;;;5.97;1.10;;;25.10;56.60;;;;;;5000561;28;20096;-73
2022/08/26 11:40:24;;;;;;;5.75;1.40;;;25.00;57.00;;;;;;5034904;28;20069;-73
2022/08/26 11:42:55;;;;;;;6.25;1.45;;;25.30;56.10;;;;;;5006985;28;20163;-74
2022/08/26 11:45:23;;;;;;;5.47;1.10;;;25.60;54.90;;;;;;4987726;28;20122;-73
2022/08/26 11:47:49;;;;;;;4.88;1.65;;;25.80;54.90;;;;;;4994177;28;20045;-73
2022/08/26 11:50:27;;;;;;;6.22;1.42;;;25.60;55.50;;;;;;4993691;28;20394;-73
2022/08/26 11:53:00;;;;;;;4.97;1.25;;;25.00;56.80;;;;;;4996785;28;20137;-74
2022/08/26 11:55:27;;;;;;;8.17;1.30;;;24.80;57.70;;;;;;4995810;28;20114;-73
2022/08/26 11:57:56;;;;;;;5.97;1.65;;;24.80;57.60;;;;;;5000162;28;20038;-73
2022/08/26 12:00:32;;;;;;;4.72;1.40;;;24.90;57.60;;;;;;4998947;28;20121;-73
2022/08/26 12:03:01;;;;;;;5.88;1.45;;;24.90;56.60;;;;;;4994311;28;20046;-73
2022/08/26 12:05:31;;;;;;;5.72;1.50;;;24.70;56.40;;;;;;4999928;28;20049;-73
2022/08/26 12:08:04;;;;;;;6.10;1.45;;;24.80;56.60;;;;;;4998686;28;20042;-75
2022/08/26 12:10:32;;;;;;;3.28;1.20;;;25.20;56.00;;;;;;4998520;28;20061;-75
2022/08/26 12:13:00;;;;;;;5.93;1.33;;;25.50;54.80;;;;;;5009609;28;20125;-73
2022/08/26 12:15:28;;;;;;;8.35;1.10;;;25.60;55.00;;;;;;5004088;28;20401;-73
2022/08/26 12:17:53;;;;;;;5.10;1.20;;;25.00;56.20;;;;;;5034241;28;20077;-72
2022/08/26 12:20:47;;;;;;;6.47;1.25;;;24.70;56.10;;;;;;4994600;28;20081;-73
2022/08/26 12:23:20;;;;;;;;;;;24.60;56.50;;;;;;5025973;28;20050;-73
2022/08/26 12:25:46;;;;;;;7.15;1.65;;;24.80;56.20;;;;;;5002185;28;19917;-73
2022/08/26 12:28:12;;;;;;;5.28;1.08;;;24.70;56.40;;;;;;4998826;28;20042;-73
2022/08/26 12:30:38;;;;;;;5.03;1.35;;;24.50;57.10;;;;;;4993920;28;20073;-73
2022/08/26 12:33:12;;;;;;;4.25;1.20;;;24.50;57.60;;;;;;4994979;28;20121;-74
2022/08/26 12:35:39;;;;;;;5.70;1.45;;;24.80;56.70;;;;;;5002281;28;20026;-75
2022/08/26 12:38:07;;;;;;;7.32;1.50;;;24.60;56.90;;;;;;5008318;28;20030;-75
2022/08/26 12:40:43;;;;;;;7.63;1.65;;;24.80;55.70;;;;;;5006678;28;20061;-75
2022/08/26 12:43:11;;;;;;;5.72;1.50;;;24.90;55.60;;;;;;5002574;28;20663;-75
2022/08/26 12:45:41;;;;;;;5.15;1.40;;;25.00;55.20;;;;;;5004345;28;20030;-75
2022/08/26 12:48:10;;;;;;;6.10;1.27;;;24.80;55.10;;;;;;4999988;28;20451;-76
2022/08/26 12:50:42;;;;;;;7.00;1.42;;;24.80;56.00;;;;;;5002104;28;20034;-76
2022/08/26 12:53:08;;;;;;;4.00;1.30;;;24.80;55.70;;;;;;5003366;28;20026;-76
2022/08/26 12:55:49;;;;;;;5.00;1.00;;;24.90;56.00;;;;;;4994334;28;20037;-76
2022/08/26 12:58:14;;;;;;;4.05;1.25;;;25.10;55.10;;;;;;4995894;28;20027;-75
2022/08/26 13:00:46;;;;;;;5.13;1.17;;;25.80;54.50;;;;;;4998047;28;20377;-76
2022/08/26 13:03:32;;;;;;;3.95;1.30;;;25.80;52.80;;;;;;4999170;28;20042;-75
2022/08/26 13:06:10;;;;;;;6.30;1.50;;;25.60;54.10;;;;;;4995528;28;20037;-75
2022/08/26 13:08:39;;;;;;;4.15;1.20;;;25.50;53.50;;;;;;5006438;28;20038;-75